createdAt,value
2018-03-07T00:00:43.691Z,8.10
2018-03-07T00:03:09.947Z,8.10
2018-03-07T00:05:36.701Z,8.00
2018-03-07T00:08:02.984Z,8.00
2018-03-07T00:10:29.215Z,8.00
2018-03-07T00:12:55.469Z,8.00
2018-03-07T00:15:21.721Z,8.00
2018-03-07T00:17:47.988Z,7.90
2018-03-07T00:20:15.348Z,7.80
2018-03-07T00:22:41.604Z,7.80
2018-03-07T00:25:08.060Z,7.80
2018-03-07T00:27:34.319Z,7.80
2018-03-07T00:30:00.925Z,7.80
2018-03-07T00:32:27.228Z,7.80
2018-03-07T00:34:54.206Z,7.90
2018-03-07T00:37:21.311Z,7.90
2018-03-07T00:39:48.284Z,7.90
2018-03-07T00:42:14.543Z,7.90
2018-03-07T00:44:40.778Z,7.80
2018-03-07T00:47:07.036Z,7.80
2018-03-07T00:49:34.549Z,7.70
2018-03-07T00:52:00.852Z,7.60
2018-03-07T00:54:27.145Z,7.60
2018-03-07T00:56:53.679Z,7.50
2018-03-07T00:59:19.911Z,7.40
2018-03-07T01:01:46.164Z,7.40
2018-03-07T01:04:13.209Z,7.40
2018-03-07T01:06:40.195Z,7.30
2018-03-07T01:09:06.448Z,7.20
2018-03-07T01:11:32.807Z,7.20
2018-03-07T01:13:59.119Z,7.10
2018-03-07T01:16:25.381Z,7.00
2018-03-07T01:18:52.383Z,7.00
2018-03-07T01:21:19.127Z,6.90
2018-03-07T01:23:45.415Z,6.90
2018-03-07T01:26:11.860Z,6.90
2018-03-07T01:28:39.117Z,6.90
2018-03-07T01:31:05.451Z,6.80
2018-03-07T01:33:32.420Z,6.80
2018-03-07T01:35:58.710Z,6.70
2018-03-07T01:38:25.000Z,6.70
2018-03-07T01:40:51.270Z,6.70
2018-03-07T01:43:17.623Z,6.70
2018-03-07T01:45:43.856Z,6.60
2018-03-07T01:48:10.102Z,6.60
2018-03-07T01:50:36.385Z,6.60
2018-03-07T01:53:02.628Z,6.50
2018-03-07T01:55:28.952Z,6.50
2018-03-07T01:57:55.196Z,6.50
2018-03-07T02:00:21.456Z,6.30
2018-03-07T02:02:47.709Z,6.30
2018-03-07T02:05:14.312Z,6.10
2018-03-07T02:07:40.563Z,6.10
2018-03-07T02:12:38.672Z,6.00
2018-03-07T02:15:05.431Z,5.90
2018-03-07T02:17:31.688Z,5.80
2018-03-07T02:19:57.952Z,5.80
2018-03-07T02:22:24.190Z,5.80
2018-03-07T02:24:50.536Z,5.80
2018-03-07T02:27:16.800Z,5.70
2018-03-07T02:29:43.259Z,5.70
2018-03-07T02:32:09.520Z,5.60
2018-03-07T02:34:35.848Z,5.60
2018-03-07T02:37:02.107Z,5.50
2018-03-07T02:39:28.455Z,5.60
2018-03-07T02:41:54.766Z,5.50
2018-03-07T02:44:21.091Z,5.50
2018-03-07T02:46:47.379Z,5.40
2018-03-07T02:49:13.642Z,5.30
2018-03-07T02:51:39.888Z,5.30
2018-03-07T02:54:06.144Z,5.30
2018-03-07T02:56:32.428Z,5.30
2018-03-07T02:58:58.955Z,5.30
2018-03-07T03:01:25.204Z,5.30
2018-03-07T03:03:51.477Z,5.20
2018-03-07T03:06:17.752Z,5.20
2018-03-07T03:08:43.987Z,5.20
2018-03-07T03:11:10.260Z,5.10
2018-03-07T03:13:36.507Z,5.10
2018-03-07T03:16:02.796Z,5.00
2018-03-07T03:18:29.047Z,5.00
2018-03-07T03:20:55.321Z,4.90
2018-03-07T03:23:22.283Z,4.90
2018-03-07T03:25:48.551Z,4.90
2018-03-07T03:28:14.796Z,5.00
2018-03-07T03:30:41.080Z,5.00
2018-03-07T03:33:07.324Z,4.90
2018-03-07T03:35:34.416Z,4.90
2018-03-07T03:38:00.948Z,4.80
2018-03-07T03:40:27.210Z,4.80
2018-03-07T03:42:53.644Z,4.80
2018-03-07T03:45:19.887Z,4.70
2018-03-07T03:47:46.172Z,4.80
2018-03-07T03:50:12.416Z,4.80
2018-03-07T03:52:38.954Z,4.70
2018-03-07T03:55:05.199Z,4.70
2018-03-07T03:57:31.505Z,4.70
2018-03-07T03:59:57.755Z,4.60
2018-03-07T04:02:24.039Z,4.60
2018-03-07T04:04:50.331Z,4.60
2018-03-07T04:07:16.647Z,4.70
2018-03-07T04:09:42.928Z,4.70
2018-03-07T04:12:09.172Z,4.70
2018-03-07T04:14:35.421Z,4.70
2018-03-07T04:17:02.750Z,4.80
2018-03-07T04:19:29.011Z,4.80
2018-03-07T04:21:55.284Z,4.70
2018-03-07T04:24:21.655Z,4.70
2018-03-07T04:26:47.947Z,4.70
2018-03-07T04:29:14.271Z,4.70
2018-03-07T04:31:40.535Z,4.60
2018-03-07T04:34:06.787Z,4.60
2018-03-07T04:36:33.123Z,4.70
2018-03-07T04:38:59.396Z,4.70
2018-03-07T04:41:25.663Z,4.70
2018-03-07T04:43:51.935Z,4.60
2018-03-07T04:46:19.672Z,4.60
2018-03-07T04:48:45.992Z,4.60
2018-03-07T04:51:12.332Z,4.60
2018-03-07T04:53:38.611Z,4.60
2018-03-07T04:56:06.056Z,4.60
2018-03-07T04:58:33.182Z,4.60
2018-03-07T05:00:59.419Z,4.50
2018-03-07T05:03:25.692Z,4.60
2018-03-07T05:05:52.008Z,4.50
2018-03-07T05:08:18.307Z,4.50
2018-03-07T05:10:44.590Z,4.60
2018-03-07T05:13:11.587Z,4.50
2018-03-07T05:15:37.864Z,4.50
2018-03-07T05:18:05.279Z,4.50
2018-03-07T05:20:31.561Z,4.40
2018-03-07T05:22:57.795Z,4.40
2018-03-07T05:25:24.814Z,4.30
2018-03-07T05:27:51.823Z,4.30
2018-03-07T05:30:18.146Z,4.30
2018-03-07T05:32:44.398Z,4.30
2018-03-07T05:35:10.795Z,4.30
2018-03-07T05:37:37.088Z,4.40
2018-03-07T05:40:03.474Z,4.20
2018-03-07T05:42:29.815Z,4.10
2018-03-07T05:44:56.916Z,4.10
2018-03-07T05:47:25.447Z,4.10
2018-03-07T05:49:51.736Z,4.00
2018-03-07T05:52:18.545Z,4.00
2018-03-07T05:54:44.787Z,4.10
2018-03-07T05:57:11.215Z,4.10
2018-03-07T05:59:37.487Z,4.10
2018-03-07T06:02:03.779Z,4.10
2018-03-07T06:04:31.072Z,4.10
2018-03-07T06:07:04.630Z,4.20
2018-03-07T06:09:30.926Z,4.20
2018-03-07T06:14:53.815Z,4.30
2018-03-07T06:17:27.140Z,4.20
2018-03-07T06:19:54.192Z,4.30
2018-03-07T06:22:20.411Z,4.30
2018-03-07T06:24:46.667Z,4.30
2018-03-07T06:27:13.577Z,4.30
2018-03-07T06:29:40.031Z,4.30
2018-03-07T06:32:07.016Z,4.40
2018-03-07T06:34:36.158Z,4.40
2018-03-07T06:37:03.819Z,4.50
2018-03-07T06:39:32.693Z,4.40
2018-03-07T06:41:58.989Z,4.20
2018-03-07T06:44:26.292Z,4.30
2018-03-07T06:46:52.556Z,4.30
2018-03-07T06:49:18.802Z,4.40
2018-03-07T06:51:45.166Z,4.40
2018-03-07T06:54:11.434Z,4.50
2018-03-07T06:56:37.695Z,4.50
2018-03-07T06:59:03.947Z,4.50
2018-03-07T07:01:30.214Z,4.60
2018-03-07T07:03:56.468Z,4.60
2018-03-07T07:06:23.199Z,4.50
2018-03-07T07:08:49.443Z,4.60
2018-03-07T07:11:15.684Z,4.60
2018-03-07T07:13:41.940Z,4.70
2018-03-07T07:16:08.174Z,4.80
2018-03-07T07:18:34.444Z,4.90
2018-03-07T07:21:00.712Z,5.10
2018-03-07T07:23:26.971Z,5.20
2018-03-07T07:25:54.696Z,5.10
2018-03-07T07:28:21.017Z,5.10
2018-03-07T07:30:47.252Z,5.20
2018-03-07T07:33:13.544Z,5.30
2018-03-07T07:35:39.795Z,5.30
2018-03-07T07:38:06.360Z,5.30
2018-03-07T07:40:32.633Z,5.40
2018-03-07T07:42:58.890Z,5.40
2018-03-07T07:45:25.875Z,5.40
2018-03-07T07:47:52.100Z,5.30
2018-03-07T07:50:18.391Z,5.40
2018-03-07T07:52:44.771Z,5.50
2018-03-07T07:55:11.015Z,5.60
2018-03-07T07:57:37.848Z,5.70
2018-03-07T08:00:04.068Z,5.80
2018-03-07T08:02:30.331Z,5.90
2018-03-07T08:04:56.558Z,6.00
2018-03-07T08:07:23.008Z,6.00
2018-03-07T08:09:49.307Z,6.10
2018-03-07T08:12:16.371Z,6.20
2018-03-07T08:14:42.636Z,6.30
2018-03-07T08:17:09.633Z,6.50
2018-03-07T08:19:36.475Z,6.50
2018-03-07T08:22:02.786Z,6.50
2018-03-07T08:24:29.013Z,6.60
2018-03-07T08:26:55.932Z,6.70
2018-03-07T08:29:22.983Z,6.70
2018-03-07T08:31:49.538Z,6.70
2018-03-07T08:34:17.078Z,6.80
2018-03-07T08:36:43.344Z,6.80
2018-03-07T08:39:09.648Z,6.80
2018-03-07T08:41:36.629Z,6.90
2018-03-07T08:44:02.916Z,6.90
2018-03-07T08:46:29.904Z,7.00
2018-03-07T08:48:56.200Z,7.00
2018-03-07T08:51:27.242Z,7.00
2018-03-07T08:53:55.178Z,7.00
2018-03-07T08:56:21.845Z,6.90
2018-03-07T08:58:48.090Z,7.00
2018-03-07T09:01:15.117Z,7.10
2018-03-07T09:03:41.520Z,7.00
2018-03-07T09:06:08.975Z,7.00
2018-03-07T09:08:36.224Z,7.10
2018-03-07T09:11:02.783Z,7.10
2018-03-07T09:13:29.025Z,7.00
2018-03-07T09:15:55.267Z,7.00
2018-03-07T09:18:21.534Z,6.90
2018-03-07T09:20:48.500Z,7.00
2018-03-07T09:23:14.840Z,6.90
2018-03-07T09:25:41.086Z,7.00
2018-03-07T09:28:07.349Z,7.00
2018-03-07T09:30:34.278Z,7.00
2018-03-07T09:33:00.660Z,7.10
2018-03-07T09:35:26.923Z,7.10
2018-03-07T09:37:53.323Z,7.10
2018-03-07T09:40:20.298Z,7.30
2018-03-07T09:42:46.575Z,7.30
2018-03-07T09:45:13.640Z,7.60
2018-03-07T09:47:40.724Z,7.60
2018-03-07T09:50:07.796Z,8.00
2018-03-07T09:52:34.028Z,8.00
2018-03-07T09:55:00.284Z,8.20
2018-03-07T09:57:27.855Z,8.60
2018-03-07T09:59:54.107Z,8.60
2018-03-07T10:02:21.111Z,9.50
2018-03-07T10:04:48.256Z,9.50
2018-03-07T10:07:15.184Z,9.90
2018-03-07T10:09:47.411Z,10.30
2018-03-07T10:12:15.373Z,10.60
2018-03-07T10:14:41.616Z,10.80
2018-03-07T10:17:08.241Z,10.90
2018-03-07T10:19:35.237Z,10.70
2018-03-07T10:22:01.583Z,10.70
2018-03-07T10:24:27.832Z,10.60
2018-03-07T10:26:54.248Z,10.50
2018-03-07T10:29:20.617Z,10.20
2018-03-07T10:31:46.884Z,10.10
2018-03-07T10:34:13.160Z,10.00
2018-03-07T10:36:41.359Z,9.90
2018-03-07T10:39:07.804Z,9.90
2018-03-07T10:41:36.275Z,9.70
2018-03-07T10:44:02.616Z,9.70
2018-03-07T10:46:29.603Z,9.70
2018-03-07T10:48:57.051Z,9.70
2018-03-07T10:51:23.441Z,9.70
2018-03-07T10:53:49.691Z,9.70
2018-03-07T10:56:15.991Z,9.70
2018-03-07T10:58:43.063Z,9.80
2018-03-07T11:01:09.312Z,9.70
2018-03-07T11:03:35.685Z,9.70
2018-03-07T11:06:01.978Z,9.60
2018-03-07T11:08:28.331Z,9.70
2018-03-07T11:10:54.707Z,9.60
2018-03-07T11:13:20.987Z,9.80
2018-03-07T11:15:47.220Z,9.80
2018-03-07T11:18:14.484Z,9.80
2018-03-07T11:20:40.781Z,9.70
2018-03-07T11:23:07.528Z,9.80
2018-03-07T11:25:33.759Z,9.90
2018-03-07T11:28:00.384Z,9.80
2018-03-07T11:30:26.599Z,9.90
2018-03-07T11:32:53.587Z,9.60
2018-03-07T11:35:19.868Z,9.50
2018-03-07T11:37:46.154Z,9.40
2018-03-07T11:40:12.435Z,9.30
2018-03-07T11:42:38.770Z,9.20
2018-03-07T11:45:05.052Z,9.30
2018-03-07T11:47:31.299Z,9.30
2018-03-07T11:49:57.528Z,9.30
2018-03-07T11:52:23.788Z,9.20
2018-03-07T11:54:50.052Z,9.20
2018-03-07T11:57:16.279Z,9.00
2018-03-07T11:59:42.535Z,9.00
2018-03-07T12:02:08.772Z,9.00
2018-03-07T12:04:35.020Z,9.10
2018-03-07T12:07:01.258Z,9.00
2018-03-07T12:09:27.556Z,9.00
2018-03-07T12:11:53.815Z,8.90
2018-03-07T12:14:20.535Z,8.90
2018-03-07T12:16:46.982Z,8.80
2018-03-07T12:19:19.081Z,8.90
2018-03-07T12:21:45.467Z,8.80
2018-03-07T12:24:12.500Z,8.90
2018-03-07T12:26:38.768Z,8.90
2018-03-07T12:29:05.151Z,9.00
2018-03-07T12:31:31.411Z,9.10
2018-03-07T12:33:57.795Z,9.10
2018-03-07T12:36:24.060Z,9.00
2018-03-07T12:38:51.077Z,9.30
2018-03-07T12:41:17.419Z,9.30
2018-03-07T12:43:43.719Z,9.50
2018-03-07T12:46:09.979Z,9.50
2018-03-07T12:48:36.215Z,9.60
2018-03-07T12:51:02.505Z,9.60
2018-03-07T12:53:28.852Z,9.60
2018-03-07T12:55:55.083Z,9.60
2018-03-07T12:58:21.371Z,9.50
2018-03-07T13:00:47.629Z,9.40
2018-03-07T13:03:15.753Z,9.40
2018-03-07T13:05:42.748Z,9.40
2018-03-07T13:08:10.444Z,9.40
2018-03-07T13:10:37.611Z,9.40
2018-03-07T13:13:03.885Z,9.30
2018-03-07T13:15:30.470Z,9.40
2018-03-07T13:17:56.761Z,9.50
2018-03-07T13:20:23.879Z,9.50
2018-03-07T13:22:55.900Z,9.70
2018-03-07T13:25:22.132Z,9.70
2018-03-07T13:27:48.362Z,9.70
2018-03-07T13:30:14.679Z,9.70
2018-03-07T13:32:41.639Z,9.60
2018-03-07T13:35:08.631Z,9.60
2018-03-07T13:37:35.475Z,9.60
2018-03-07T13:40:01.935Z,9.60
2018-03-07T13:42:30.007Z,9.50
2018-03-07T13:44:56.459Z,9.50
2018-03-07T13:47:22.790Z,9.50
2018-03-07T13:49:49.772Z,9.50
2018-03-07T13:52:16.052Z,9.40
2018-03-07T13:54:43.053Z,9.30
2018-03-07T13:57:09.418Z,9.30
2018-03-07T13:59:36.575Z,9.40
2018-03-07T14:02:02.840Z,9.40
2018-03-07T14:04:29.899Z,9.30
2018-03-07T14:06:56.151Z,9.40
2018-03-07T14:09:22.542Z,9.50
2018-03-07T14:11:49.149Z,9.60
2018-03-07T14:14:15.771Z,9.60
2018-03-07T14:16:43.315Z,9.70
2018-03-07T14:19:09.540Z,9.70
2018-03-07T14:21:36.395Z,9.70
2018-03-07T14:24:08.436Z,9.80
2018-03-07T14:26:34.715Z,9.80
2018-03-07T14:29:01.722Z,10.00
2018-03-07T14:31:28.058Z,9.90
2018-03-07T14:33:55.435Z,10.00
2018-03-07T14:36:24.771Z,9.90
2018-03-07T14:38:51.076Z,9.90
2018-03-07T14:41:17.427Z,9.90
2018-03-07T14:43:43.653Z,9.90
2018-03-07T14:46:15.687Z,9.80
2018-03-07T14:48:42.319Z,9.80
2018-03-07T14:51:08.652Z,10.00
2018-03-07T14:53:40.964Z,11.50
2018-03-07T14:56:07.995Z,12.90
2018-03-07T14:58:35.032Z,18.00
2018-03-07T15:01:01.284Z,17.90
2018-03-07T15:03:27.755Z,18.00
2018-03-07T15:05:57.330Z,18.30
2018-03-07T15:08:23.896Z,16.90
2018-03-07T15:10:50.182Z,15.50
2018-03-07T15:13:16.531Z,14.80
2018-03-07T15:15:42.820Z,14.80
2018-03-07T15:18:09.653Z,16.90
2018-03-07T15:20:35.904Z,19.10
2018-03-07T15:23:02.200Z,19.80
2018-03-07T15:25:29.668Z,18.50
2018-03-07T15:28:02.627Z,17.60
2018-03-07T15:30:29.004Z,16.70
2018-03-07T15:32:55.222Z,16.10
2018-03-07T15:35:22.199Z,13.60
2018-03-07T15:37:48.424Z,13.50
2018-03-07T15:40:14.663Z,12.50
2018-03-07T15:42:41.482Z,11.90
2018-03-07T15:45:09.077Z,11.00
2018-03-07T15:47:38.887Z,10.80
2018-03-07T15:50:06.323Z,10.70
2018-03-07T15:52:32.783Z,10.40
2018-03-07T15:55:03.527Z,10.30
2018-03-07T15:57:30.325Z,10.30
2018-03-07T15:59:57.830Z,10.20
2018-03-07T16:02:26.117Z,10.20
2018-03-07T16:04:52.415Z,10.20
2018-03-07T16:07:18.667Z,10.00
2018-03-07T16:09:45.039Z,9.90
2018-03-07T16:12:11.283Z,9.90
2018-03-07T16:14:37.666Z,9.80
2018-03-07T16:17:04.015Z,10.00
2018-03-07T16:19:31.523Z,10.00
2018-03-07T16:21:57.788Z,9.80
2018-03-07T16:24:24.884Z,9.80
2018-03-07T16:26:57.205Z,9.70
2018-03-07T16:29:24.874Z,9.50
2018-03-07T16:31:51.716Z,9.50
2018-03-07T16:34:18.768Z,9.50
2018-03-07T16:36:45.140Z,9.40
2018-03-07T16:39:13.363Z,9.30
2018-03-07T16:41:40.343Z,9.20
2018-03-07T16:44:07.025Z,9.20
2018-03-07T16:46:34.171Z,9.10
2018-03-07T16:52:34.278Z,9.00
2018-03-07T16:55:00.530Z,8.80
2018-03-07T16:57:28.948Z,8.80
2018-03-07T16:59:57.775Z,8.60
2018-03-07T17:02:24.985Z,8.60
2018-03-07T17:04:51.971Z,8.40
2018-03-07T17:07:18.827Z,8.30
2018-03-07T17:09:52.394Z,8.30
2018-03-07T17:12:30.939Z,8.30
2018-03-07T17:14:58.673Z,8.30
2018-03-07T17:17:26.088Z,8.20
2018-03-07T17:19:53.429Z,8.10
2018-03-07T17:22:20.524Z,8.00
2018-03-07T17:24:49.125Z,8.10
2018-03-07T17:27:15.531Z,8.10
2018-03-07T17:29:41.786Z,8.10
2018-03-07T17:32:08.767Z,7.90
2018-03-07T17:34:35.259Z,7.80
2018-03-07T17:37:01.804Z,7.90
2018-03-07T17:39:28.291Z,7.80
2018-03-07T17:41:54.663Z,7.80
2018-03-07T17:44:23.667Z,7.80
2018-03-07T17:46:50.429Z,7.80
2018-03-07T17:49:16.722Z,7.80
2018-03-07T17:51:43.760Z,7.80
2018-03-07T17:54:10.755Z,7.80
2018-03-07T17:56:37.246Z,7.80
2018-03-07T17:59:03.687Z,7.80
2018-03-07T18:01:29.980Z,7.80
2018-03-07T18:03:56.250Z,7.70
2018-03-07T18:06:22.528Z,7.60
2018-03-07T18:08:48.758Z,7.50
2018-03-07T18:11:17.270Z,7.50
2018-03-07T18:13:44.307Z,7.40
2018-03-07T18:16:16.573Z,7.20
2018-03-07T18:18:42.827Z,7.20
2018-03-07T18:21:10.712Z,7.20
2018-03-07T18:23:39.992Z,7.20
2018-03-07T18:26:06.216Z,7.20
2018-03-07T18:28:32.474Z,7.10
2018-03-07T18:30:58.980Z,7.00
2018-03-07T18:33:26.766Z,7.00
2018-03-07T18:35:53.012Z,7.00
2018-03-07T18:38:19.251Z,7.00
2018-03-07T18:40:49.179Z,7.00
2018-03-07T18:43:16.938Z,7.00
2018-03-07T18:45:43.212Z,6.90
2018-03-07T18:48:10.262Z,6.90
2018-03-07T18:50:36.564Z,6.90
2018-03-07T18:53:03.551Z,6.90
2018-03-07T18:55:29.844Z,6.90
2018-03-07T18:57:56.153Z,6.90
2018-03-07T19:00:22.380Z,6.90
2018-03-07T19:02:49.890Z,6.90
2018-03-07T19:05:17.047Z,6.90
2018-03-07T19:07:43.440Z,6.80
2018-03-07T19:10:09.667Z,6.90
2018-03-07T19:12:45.036Z,6.90
2018-03-07T19:15:13.008Z,6.90
2018-03-07T19:17:39.651Z,7.00
2018-03-07T19:20:05.919Z,7.00
2018-03-07T19:22:32.164Z,7.00
2018-03-07T19:24:58.416Z,7.00
2018-03-07T19:27:25.115Z,7.10
2018-03-07T19:29:51.630Z,7.10
2018-03-07T19:32:17.869Z,7.10
2018-03-07T19:34:44.131Z,7.10
2018-03-07T19:37:10.385Z,7.10
2018-03-07T19:39:36.657Z,7.00
2018-03-07T19:42:02.976Z,7.10
2018-03-07T19:44:30.748Z,7.20
2018-03-07T19:46:57.255Z,7.10
2018-03-07T19:49:23.507Z,7.20
2018-03-07T19:51:49.747Z,7.20
2018-03-07T19:54:16.337Z,7.20
2018-03-07T19:56:42.799Z,7.20
2018-03-07T19:59:09.125Z,7.20
2018-03-07T20:01:36.248Z,7.10
2018-03-07T20:04:02.621Z,7.10
2018-03-07T20:06:28.844Z,7.10
2018-03-07T20:08:56.445Z,7.20
2018-03-07T20:11:22.733Z,7.10
2018-03-07T20:13:48.957Z,7.10
2018-03-07T20:16:18.864Z,7.10
2018-03-07T20:18:45.171Z,7.10
2018-03-07T20:21:11.498Z,7.00
2018-03-07T20:23:40.176Z,6.90
2018-03-07T20:26:13.519Z,7.00
2018-03-07T20:28:47.516Z,6.90
2018-03-07T20:31:16.466Z,7.00
2018-03-07T20:33:43.708Z,6.90
2018-03-07T20:36:10.691Z,6.80
2018-03-07T20:38:36.911Z,6.90
2018-03-07T20:41:03.173Z,6.80
2018-03-07T20:43:29.472Z,6.70
2018-03-07T20:45:56.689Z,6.70
2018-03-07T20:51:01.813Z,6.50
2018-03-07T20:53:28.368Z,6.50
2018-03-07T20:55:54.706Z,6.50
2018-03-07T20:58:20.933Z,6.50
2018-03-07T21:00:47.171Z,6.50
2018-03-07T21:03:13.864Z,6.40
2018-03-07T21:05:40.831Z,6.40
2018-03-07T21:08:07.867Z,6.30
2018-03-07T21:10:49.390Z,6.20
2018-03-07T21:13:16.215Z,6.10
2018-03-07T21:15:45.471Z,6.10
2018-03-07T21:18:13.473Z,6.00
2018-03-07T21:20:39.872Z,5.90
2018-03-07T21:23:12.717Z,6.00
2018-03-07T21:25:39.347Z,6.00
2018-03-07T21:28:05.895Z,6.00
2018-03-07T21:30:32.169Z,6.00
2018-03-07T21:32:59.174Z,6.00
2018-03-07T21:35:47.033Z,6.00
2018-03-07T21:38:15.136Z,6.00
2018-03-07T21:40:41.442Z,6.00
2018-03-07T21:43:07.717Z,6.00
2018-03-07T21:45:34.787Z,6.00
2018-03-07T21:48:01.023Z,6.00
2018-03-07T21:50:29.763Z,6.00
2018-03-07T21:52:56.010Z,5.90
2018-03-07T21:55:22.244Z,6.00
2018-03-07T21:57:49.169Z,6.00
2018-03-07T22:00:15.447Z,6.00
2018-03-07T22:02:47.780Z,6.10
2018-03-07T22:05:14.027Z,6.10
2018-03-07T22:07:40.316Z,6.10
2018-03-07T22:10:06.550Z,6.10
2018-03-07T22:12:32.893Z,6.10
2018-03-07T22:14:59.159Z,6.10
2018-03-07T22:17:28.258Z,6.00
2018-03-07T22:19:59.084Z,6.10
2018-03-07T22:22:25.310Z,6.10
2018-03-07T22:27:50.671Z,6.20
2018-03-07T22:30:16.988Z,6.10
2018-03-07T22:32:43.559Z,6.20
2018-03-07T22:35:09.803Z,6.20
2018-03-07T22:37:36.147Z,6.20
2018-03-07T22:40:02.400Z,6.20
2018-03-07T22:42:28.752Z,6.20
2018-03-07T22:44:55.035Z,6.20
2018-03-07T22:47:21.320Z,6.30
2018-03-07T22:49:47.573Z,6.20
2018-03-07T22:52:13.953Z,6.20
2018-03-07T22:54:40.220Z,6.30
2018-03-07T22:57:06.810Z,6.30
2018-03-07T22:59:33.064Z,6.20
2018-03-07T23:01:59.347Z,6.20
2018-03-07T23:04:25.602Z,6.20
2018-03-07T23:06:52.064Z,6.20
2018-03-07T23:09:18.328Z,6.20
2018-03-07T23:11:44.571Z,6.20
2018-03-07T23:14:11.094Z,6.30
2018-03-07T23:16:37.416Z,6.30
2018-03-07T23:19:03.699Z,6.30
2018-03-07T23:21:29.982Z,6.30
2018-03-07T23:23:56.258Z,6.40
2018-03-07T23:26:22.480Z,6.30
2018-03-07T23:28:48.747Z,6.40
2018-03-07T23:31:14.983Z,6.40
2018-03-07T23:33:47.147Z,6.40
2018-03-07T23:36:14.112Z,6.40
2018-03-07T23:38:40.335Z,6.30
2018-03-07T23:41:06.576Z,6.40
2018-03-07T23:43:32.834Z,6.30
2018-03-07T23:45:59.083Z,6.30
2018-03-07T23:48:25.318Z,6.40
2018-03-07T23:50:51.767Z,6.30
2018-03-07T23:53:17.987Z,6.40
2018-03-07T23:55:44.533Z,6.20
2018-03-07T23:58:10.917Z,6.10
